createdAt,value
2022-11-13T00:02:47.895Z,21.40
2022-11-13T00:08:54.929Z,20.13
2022-11-13T00:14:59.692Z,19.67
2022-11-13T00:21:06.813Z,22.83
2022-11-13T00:27:10.393Z,22.33
2022-11-13T00:33:26.398Z,21.33
2022-11-13T00:39:38.712Z,21.85
2022-11-13T00:45:42.048Z,21.42
2022-11-13T00:51:46.869Z,22.83
2022-11-13T00:57:50.271Z,21.80
2022-11-13T01:03:53.622Z,16.55
2022-11-13T01:09:59.816Z,18.08
2022-11-13T01:16:06.746Z,22.90
2022-11-13T01:22:10.143Z,20.88
2022-11-13T01:28:14.813Z,22.38
2022-11-13T01:34:18.710Z,21.33
2022-11-13T01:40:22.219Z,18.13
2022-11-13T01:46:30.994Z,18.92
2022-11-13T01:52:38.254Z,18.55
2022-11-13T01:58:42.833Z,22.08
2022-11-13T02:04:48.285Z,22.58
2022-11-13T02:10:51.868Z,20.13
2022-11-13T02:16:57.345Z,21.35
2022-11-13T02:23:04.924Z,22.83
2022-11-13T02:29:09.927Z,23.02
2022-11-13T02:35:13.469Z,20.80
2022-11-13T02:41:16.861Z,21.02
2022-11-13T02:47:22.786Z,18.77
2022-11-13T02:53:26.213Z,18.35
2022-11-13T02:59:29.815Z,21.08
2022-11-13T03:05:34.490Z,17.60
2022-11-13T03:11:37.892Z,19.45
2022-11-13T03:17:41.678Z,20.65
2022-11-13T03:23:46.530Z,19.08
2022-11-13T03:29:50.134Z,22.00
2022-11-13T03:35:53.457Z,17.73
2022-11-13T03:41:58.171Z,22.17
2022-11-13T03:48:01.989Z,21.70
2022-11-13T03:54:05.698Z,23.73
2022-11-13T04:00:11.410Z,38.53
2022-11-13T04:06:15.572Z,24.45
2022-11-13T04:12:19.089Z,22.52
2022-11-13T04:18:23.847Z,22.83
2022-11-13T04:24:27.858Z,21.95
2022-11-13T04:30:31.261Z,21.23
2022-11-13T04:36:36.097Z,21.08
2022-11-13T04:42:51.439Z,22.17
2022-11-13T04:48:54.754Z,21.42
2022-11-13T04:55:00.082Z,17.67
2022-11-13T05:01:04.153Z,19.40
2022-11-13T05:07:07.572Z,21.95
2022-11-13T05:13:12.737Z,23.00
2022-11-13T05:19:16.166Z,24.17
2022-11-13T05:25:19.595Z,19.83
2022-11-13T05:31:24.273Z,19.52
2022-11-13T05:37:27.587Z,18.92
2022-11-13T05:43:30.946Z,18.35
2022-11-13T05:49:35.892Z,22.38
2022-11-13T05:55:39.249Z,19.80
2022-11-13T06:01:43.004Z,20.77
2022-11-13T06:07:51.006Z,17.73
2022-11-13T06:13:55.188Z,37.67
2022-11-13T06:19:58.769Z,24.98
2022-11-13T06:26:04.051Z,24.13
2022-11-13T06:32:07.715Z,20.95
2022-11-13T06:38:11.090Z,20.13
2022-11-13T06:44:15.801Z,19.58
2022-11-13T06:50:19.120Z,19.25
2022-11-13T06:56:23.176Z,21.63
2022-11-13T07:02:27.894Z,29.85
2022-11-13T07:08:31.683Z,25.42
2022-11-13T07:14:35.409Z,24.90
2022-11-13T07:20:40.217Z,24.80
2022-11-13T07:26:43.557Z,24.55
2022-11-13T07:32:47.122Z,23.25
2022-11-13T07:38:57.872Z,25.85
2022-11-13T07:45:03.419Z,25.67
2022-11-13T07:51:07.004Z,22.50
2022-11-13T07:57:11.718Z,19.80
2022-11-13T08:03:16.010Z,18.65
2022-11-13T08:09:19.433Z,24.08
2022-11-13T08:15:24.340Z,24.02
2022-11-13T08:21:27.719Z,27.33
2022-11-13T08:27:31.073Z,27.40
2022-11-13T08:33:36.059Z,24.25
2022-11-13T08:39:39.404Z,21.65
2022-11-13T08:45:42.955Z,21.10
2022-11-13T08:51:47.681Z,23.77
2022-11-13T08:57:51.027Z,26.67
2022-11-13T09:03:54.397Z,25.05
2022-11-13T09:09:59.269Z,24.15
2022-11-13T09:16:03.019Z,26.98
2022-11-13T09:22:06.365Z,61.42
2022-11-13T09:28:11.688Z,26.30
2022-11-13T09:34:15.094Z,29.48
2022-11-13T09:40:25.076Z,43.50
2022-11-13T09:46:34.491Z,31.02
2022-11-13T09:52:39.249Z,32.78
2022-11-13T09:58:47.222Z,31.80
2022-11-13T10:04:57.836Z,27.58
2022-11-13T10:11:04.129Z,28.95
2022-11-13T10:17:10.384Z,26.65
2022-11-13T10:23:17.467Z,28.52
2022-11-13T10:29:21.912Z,30.02
2022-11-13T10:35:33.624Z,33.72
2022-11-13T10:41:48.310Z,34.60
2022-11-13T10:48:08.186Z,33.60
2022-11-13T10:54:22.428Z,34.53
2022-11-13T11:00:29.067Z,36.40
2022-11-13T11:07:05.015Z,35.53
2022-11-13T11:13:03.159Z,38.92
2022-11-13T11:19:10.924Z,39.40
2022-11-13T11:25:15.935Z,43.17
2022-11-13T11:31:22.614Z,38.50
2022-11-13T11:37:29.233Z,38.22
2022-11-13T11:43:40.791Z,38.63
2022-11-13T11:49:45.171Z,37.42
2022-11-13T11:56:03.702Z,42.35
2022-11-13T12:02:22.636Z,42.97
2022-11-13T12:08:30.684Z,42.58
2022-11-13T12:14:40.719Z,40.92
2022-11-13T12:20:46.084Z,44.70
2022-11-13T12:26:53.893Z,41.63
2022-11-13T12:33:04.902Z,38.15
2022-11-13T12:39:14.816Z,39.55
2022-11-13T12:45:21.348Z,37.03
2022-11-13T12:51:26.054Z,34.17
2022-11-13T12:57:30.884Z,42.25
2022-11-13T13:03:49.199Z,40.35
2022-11-13T13:10:00.371Z,46.83
2022-11-13T13:16:04.726Z,60.88
2022-11-13T13:22:11.857Z,79.43
2022-11-13T13:28:21.565Z,58.08
2022-11-13T13:34:35.065Z,47.85
2022-11-13T13:40:40.364Z,43.17
2022-11-13T13:46:45.111Z,33.42
2022-11-13T13:52:55.300Z,31.00
2022-11-13T13:58:59.924Z,32.90
2022-11-13T14:05:05.446Z,27.45
2022-11-13T14:11:18.152Z,24.35
2022-11-13T14:17:24.734Z,22.98
2022-11-13T14:23:31.241Z,18.15
2022-11-13T14:29:36.750Z,21.02
2022-11-13T14:35:40.528Z,19.00
2022-11-13T14:41:53.150Z,18.08
2022-11-13T14:48:00.191Z,18.70
2022-11-13T14:54:07.827Z,21.55
2022-11-13T15:00:14.966Z,21.27
2022-11-13T15:06:19.946Z,21.52
2022-11-13T15:12:23.556Z,17.77
2022-11-13T15:18:28.340Z,20.42
2022-11-13T15:24:31.661Z,19.10
2022-11-13T15:30:35.008Z,21.30
2022-11-13T15:36:39.764Z,20.70
2022-11-13T15:42:43.822Z,23.63
2022-11-13T15:48:47.448Z,24.95
2022-11-13T15:54:52.614Z,24.17
2022-11-13T16:00:56.006Z,28.38
2022-11-13T16:06:59.432Z,23.42
2022-11-13T16:13:04.637Z,31.27
2022-11-13T16:19:11.955Z,31.08
2022-11-13T16:25:16.410Z,25.52
2022-11-13T16:31:23.029Z,28.75
2022-11-13T16:37:27.027Z,28.50
2022-11-13T16:43:30.977Z,28.10
2022-11-13T16:49:35.916Z,26.52
2022-11-13T16:55:39.520Z,27.90
2022-11-13T17:01:43.056Z,26.00
2022-11-13T17:07:47.919Z,30.95
2022-11-13T17:13:51.783Z,27.80
2022-11-13T17:19:55.522Z,28.70
2022-11-13T17:26:00.291Z,26.65
2022-11-13T17:32:03.998Z,30.17
2022-11-13T17:38:07.392Z,30.50
2022-11-13T17:44:12.204Z,29.63
2022-11-13T17:50:16.276Z,29.25
2022-11-13T17:56:20.231Z,29.42
2022-11-13T18:02:24.994Z,35.00
2022-11-13T18:08:28.473Z,27.45
2022-11-13T18:14:31.875Z,29.67
2022-11-13T18:20:37.276Z,32.50
2022-11-13T18:26:40.824Z,29.10
2022-11-13T18:32:44.304Z,32.75
2022-11-13T18:38:49.305Z,29.67
2022-11-13T18:44:53.092Z,32.50
2022-11-13T18:50:57.228Z,32.83
2022-11-13T18:57:03.033Z,28.55
2022-11-13T19:03:06.428Z,31.90
2022-11-13T19:09:12.059Z,27.60
2022-11-13T19:15:16.874Z,42.08
2022-11-13T19:21:20.731Z,36.92
2022-11-13T19:27:24.329Z,28.65
2022-11-13T19:33:29.514Z,26.58
2022-11-13T19:39:33.065Z,27.65
2022-11-13T19:45:37.515Z,31.08
2022-11-13T19:51:42.461Z,28.25
2022-11-13T19:57:46.381Z,26.30
2022-11-13T20:03:49.897Z,31.15
2022-11-13T20:09:54.905Z,24.40
2022-11-13T20:15:58.351Z,25.02
2022-11-13T20:22:01.743Z,26.48
2022-11-13T20:28:07.153Z,31.15
2022-11-13T20:34:10.758Z,23.52
2022-11-13T20:40:14.212Z,25.08
2022-11-13T20:46:19.822Z,22.52
2022-11-13T20:52:23.197Z,25.70
2022-11-13T20:58:26.960Z,22.75
2022-11-13T21:04:32.035Z,24.23
2022-11-13T21:10:35.698Z,22.98
2022-11-13T21:16:39.178Z,18.45
2022-11-13T21:22:43.930Z,20.67
2022-11-13T21:28:47.298Z,19.08
2022-11-13T21:34:53.862Z,16.80
2022-11-13T21:41:19.356Z,21.45
2022-11-13T21:47:22.817Z,21.15
2022-11-13T21:53:26.224Z,28.90
2022-11-13T21:59:31.815Z,25.83
2022-11-13T22:05:35.158Z,34.95
2022-11-13T22:11:38.943Z,59.80
2022-11-13T22:17:43.644Z,42.60
2022-11-13T22:23:47.091Z,33.63
2022-11-13T22:29:50.481Z,30.08
2022-11-13T22:35:55.203Z,32.65
2022-11-13T22:41:58.625Z,32.95
2022-11-13T22:48:02.017Z,27.52
2022-11-13T22:54:07.951Z,96.10
2022-11-13T23:00:12.206Z,160.32
2022-11-13T23:06:16.380Z,222.65
2022-11-13T23:12:22.291Z,114.10
2022-11-13T23:18:25.664Z,56.78
2022-11-13T23:24:28.975Z,39.75
2022-11-13T23:30:33.678Z,65.90
2022-11-13T23:36:36.999Z,47.85
2022-11-13T23:42:54.765Z,56.85
2022-11-13T23:49:00.469Z,56.38
2022-11-13T23:55:03.835Z,52.25
